Time;durP1;ratioP1;P1;durP2;ratioP2;P2;SDS_P1;SDS_P2;PMS_P1;PMS_P2;Temp;Humidity;BMP_temperature;BMP_pressure;BME280_temperature;BME280_humidity;BME280_pressure;Samples;Min_cycle;Max_cycle;Signal;HPM_P1;HPM_P2
2022/09/24 00:00:27;;;;;;;;;;;;;;;13.60;100.00;99648.13;5062216;28;20238;-58
2022/09/24 00:03:35;;;;;;;0.50;0.50;;;;;;;13.57;100.00;99656.13;5038986;28;20113;-57
2022/09/24 00:06:13;;;;;;;0.80;0.70;;;;;;;13.54;100.00;99653.63;5069030;28;20258;-58
2022/09/24 00:09:00;;;;;;;0.82;0.60;;;;;;;13.24;100.00;99609.25;5039019;28;20056;-57
2022/09/24 00:11:48;;;;;;;3.55;1.50;;;;;;;13.49;100.00;99616.22;5072091;28;20067;-56
2022/09/24 00:14:49;;;;;;;0.73;0.63;;;;;;;13.57;100.00;99611.53;5069589;28;20099;-56
2022/09/24 00:17:31;;;;;;;0.40;0.40;;;;;;;13.66;100.00;99616.41;5069630;28;20131;-54
2022/09/24 00:20:21;;;;;;;0.60;0.60;;;;;;;13.71;100.00;99598.72;5030775;28;20068;-55
2022/09/24 00:23:06;;;;;;;0.70;0.60;;;;;;;13.70;100.00;99594.34;5074306;28;20052;-58
2022/09/24 00:28:46;;;;;;;0.60;0.60;;;;;;;13.66;100.00;99611.16;5071836;28;20052;-56
2022/09/24 00:31:28;;;;;;;1.27;0.70;;;;;;;13.75;100.00;99608.19;5073072;28;20291;-57
2022/09/24 00:34:07;;;;;;;1.60;0.80;;;;;;;13.75;100.00;99605.56;5072193;28;20052;-56
2022/09/24 00:39:33;;;;;;;0.73;0.60;;;;;;;13.72;100.00;99547.91;5073022;28;20116;-55
2022/09/24 00:42:23;;;;;;;1.10;0.68;;;;;;;13.75;100.00;99584.56;5023818;28;20116;-58
2022/09/24 00:45:12;;;;;;;0.60;0.60;;;;;;;13.80;100.00;99582.59;5062796;28;20061;-58
2022/09/24 00:48:01;;;;;;;4.28;0.98;;;;;;;13.73;100.00;99557.50;5071974;28;20083;-59
2022/09/24 00:53:33;;;;;;;0.50;0.50;;;;;;;13.92;100.00;99572.50;5068317;28;20061;-57
2022/09/24 00:56:24;;;;;;;1.40;0.70;;;;;;;13.97;100.00;99560.88;5072588;28;20045;-58
2022/09/24 00:59:05;;;;;;;2.70;2.10;;;;;;;14.04;100.00;99532.59;5068624;28;20044;-58
2022/09/24 01:01:59;;;;;;;3.27;2.47;;;;;;;14.11;100.00;99517.44;5069999;28;20063;-57
2022/09/24 01:04:34;;;;;;;2.67;1.43;;;;;;;14.14;100.00;99523.38;5070951;28;20303;-58
2022/09/24 01:07:36;;;;;;;2.30;2.00;;;;;;;14.12;100.00;99519.97;5071447;28;20294;-58
2022/09/24 01:10:46;;;;;;;1.10;1.00;;;;;;;14.16;100.00;99516.31;5069707;28;20309;-58
2022/09/24 01:13:39;;;;;;;0.97;0.90;;;;;;;14.16;100.00;99503.16;5069362;28;20287;-58
2022/09/24 01:16:42;;;;;;;1.63;0.70;;;;;;;14.28;100.00;99509.69;5071016;28;20326;-57
2022/09/24 01:20:12;;;;;;;0.60;0.60;;;;;;;14.40;100.00;99472.34;5017343;28;20041;-58
2022/09/24 01:23:17;;;;;;;0.90;0.75;;;;;;;14.60;100.00;99474.09;5069862;28;20052;-58
2022/09/24 01:26:18;;;;;;;0.60;0.60;;;;;;;14.77;100.00;99467.19;5071408;28;20095;-58
2022/09/24 01:29:20;;;;;;;0.77;0.77;;;;;;;14.67;100.00;99443.09;5070856;28;20055;-57
2022/09/24 01:35:27;;;;;;;3.03;0.70;;;;;;;15.07;100.00;99446.50;5070563;28;20311;-57
2022/09/24 01:38:37;;;;;;;0.67;0.63;;;;;;;15.19;100.00;99450.31;5070082;28;20303;-58
2022/09/24 01:41:22;;;;;;;0.57;0.57;;;;;;;15.17;100.00;99415.31;5071888;28;20294;-59
2022/09/24 01:44:17;;;;;;;10.50;6.60;;;;;;;15.17;100.00;99394.28;5071533;28;20519;-57
2022/09/24 01:46:59;;;;;;;4.55;2.60;;;;;;;15.17;100.00;99420.59;5071575;28;20286;-58
2022/09/24 01:50:05;;;;;;;2.63;1.53;;;;;;;15.25;100.00;99435.09;5031904;28;20064;-58
2022/09/24 01:52:53;;;;;;;1.67;0.80;;;;;;;15.26;100.00;99417.53;5057438;28;20295;-59
2022/09/24 01:55:48;;;;;;;0.60;0.60;;;;;;;15.30;100.00;99427.81;5040632;28;20350;-58
2022/09/24 01:59:00;;;;;;;0.83;0.80;;;;;;;15.41;100.00;99440.44;5041300;28;20304;-57
2022/09/24 02:02:18;;;;;;;;;;;;;;;;;;;;;
2022/09/24 02:05:22;;;;;;;1.07;0.90;;;;;;;15.47;100.00;99419.06;5016412;28;20057;-57
2022/09/24 02:08:05;;;;;;;2.10;1.23;;;;;;;15.45;100.00;99405.16;5038510;28;20276;-57
2022/09/24 02:10:55;;;;;;;1.10;0.80;;;;;;;15.51;100.00;99425.91;5039787;28;20623;-55
2022/09/24 02:13:52;;;;;;;1.73;0.90;;;;;;;15.52;100.00;99411.81;5044976;28;20280;-57
2022/09/24 02:16:40;;;;;;;0.67;0.67;;;;;;;15.48;100.00;99420.78;5047185;28;20288;-55
2022/09/24 02:19:26;;;;;;;0.60;0.57;;;;;;;15.48;100.00;99410.25;5020991;28;20292;-57
2022/09/24 02:25:25;;;;;;;1.80;0.73;;;;;;;15.35;100.00;99430.22;5044955;28;20280;-57
2022/09/24 02:28:11;;;;;;;5.50;0.73;;;;;;;15.27;100.00;99401.63;5047173;28;20299;-57
2022/09/24 02:30:57;;;;;;;1.50;0.70;;;;;;;15.25;100.00;99435.09;5045891;28;20308;-57
2022/09/24 02:42:21;;;;;;;0.90;0.70;;;;;;;15.27;100.00;99387.63;5046900;28;20288;-56
2022/09/24 02:45:10;;;;;;;3.37;0.90;;;;;;;15.26;100.00;99399.09;5046995;28;20311;-55
2022/09/24 02:48:12;;;;;;;1.90;0.83;;;;;;;15.20;100.00;99373.06;5030131;28;20348;-56
2022/09/24 02:51:15;;;;;;;2.67;0.97;;;;;;;15.22;100.00;99352.78;5017324;28;20347;-57
2022/09/24 02:53:54;;;;;;;4.00;0.67;;;;;;;15.18;100.00;99332.84;5056617;28;20298;-56
2022/09/24 02:56:53;;;;;;;2.43;0.87;;;;;;;15.22;100.00;99387.00;5077538;28;20359;-56
2022/09/24 02:59:31;;;;;;;0.73;0.60;;;;;;;15.27;100.00;99337.63;5044141;28;20294;-56
2022/09/24 03:02:20;;;;;;;1.10;0.80;;;;;;;15.31;100.00;99362.88;5075748;28;20313;-57
2022/09/24 03:04:55;;;;;;;0.80;0.70;;;;;;;15.49;100.00;99358.44;5075801;28;20331;-56
2022/09/24 03:07:30;;;;;;;3.13;0.90;;;;;;;15.54;100.00;99351.16;5077263;28;20288;-56
2022/09/24 03:10:19;;;;;;;0.65;0.60;;;;;;;15.60;100.00;99365.78;5076337;28;20448;-57
2022/09/24 03:13:02;;;;;;;1.43;0.73;;;;;;;15.58;100.00;99347.47;5045037;28;20044;-57
2022/09/24 03:15:53;;;;;;;0.77;0.77;;;;;;;15.61;100.00;99335.91;5075237;28;20593;-56
2022/09/24 03:18:48;;;;;;;1.50;0.90;;;;;;;15.66;100.00;99354.97;5013729;28;20052;-57
2022/09/24 03:24:28;;;;;;;9.63;8.70;;;;;;;15.88;100.00;99349.47;5074935;28;20296;-56
2022/09/24 03:27:11;;;;;;;14.67;13.30;;;;;;;15.79;100.00;99318.31;5073487;28;20276;-57
2022/09/24 03:32:56;;;;;;;3.13;1.90;;;;;;;16.23;100.00;99370.44;5072907;28;20283;-57
2022/09/24 03:35:41;;;;;;;2.47;2.03;;;;;;;16.22;100.00;99353.75;5072203;28;20375;-57
2022/09/24 03:38:37;;;;;;;3.80;2.03;;;;;;;16.35;100.00;99349.53;5071647;28;20599;-57
2022/09/24 03:41:18;;;;;;;2.17;1.70;;;;;;;16.27;100.00;99346.44;5071231;28;20291;-57
2022/09/24 03:44:06;;;;;;;2.25;1.83;;;;;;;16.35;100.00;99339.00;5071384;28;20283;-57
2022/09/24 03:47:13;;;;;;;2.70;2.00;;;;;;;16.37;100.00;99346.78;5072314;28;20060;-58
2022/09/24 03:50:10;;;;;;;3.40;2.30;;;;;;;16.38;100.00;99346.72;5072194;28;20296;-57
2022/09/24 03:52:46;;;;;;;5.23;2.63;;;;;;;16.35;100.00;99333.72;5073390;28;20291;-57
2022/09/24 03:55:42;;;;;;;4.83;3.67;;;;;;;16.32;100.00;99328.59;5046884;28;20314;-56
2022/09/24 03:58:40;;;;;;;4.20;3.37;;;;;;;16.35;100.00;99317.91;5072424;28;20283;-58
2022/09/24 04:01:36;;;;;;;6.80;5.30;;;;;;;16.38;100.00;99322.16;4985841;28;20301;-57
2022/09/24 04:04:26;;;;;;;16.47;14.77;;;;;;;16.41;100.00;99331.69;4977291;28;20281;-57
2022/09/24 04:07:11;;;;;;;7.28;4.70;;;;;;;15.88;100.00;99244.09;5001757;28;20314;-56
2022/09/24 04:09:54;;;;;;;5.97;5.23;;;;;;;16.39;100.00;99324.69;5001416;28;20081;-57
2022/09/24 04:12:34;;;;;;;7.67;5.03;;;;;;;16.42;100.00;99322.81;5002119;28;20273;-55
2022/09/24 04:15:17;;;;;;;7.57;4.97;;;;;;;16.47;100.00;99304.97;4985192;28;20336;-58
2022/09/24 04:18:09;;;;;;;7.33;5.60;;;;;;;16.51;100.00;99293.31;5001133;28;20314;-57
2022/09/24 04:21:00;;;;;;;;;;;;;;;16.65;100.00;99292.50;5001403;28;20353;-58
2022/09/24 04:23:54;;;;;;;7.13;4.30;;;;;;;16.73;100.00;99285.88;4999106;28;19917;-57
2022/09/24 04:26:44;;;;;;;9.57;3.60;;;;;;;16.72;100.00;99268.34;4972148;28;20325;-57
2022/09/24 04:29:33;;;;;;;6.77;2.80;;;;;;;16.84;100.00;99271.25;5022723;28;20282;-58
2022/09/24 04:32:13;;;;;;;5.43;3.03;;;;;;;16.89;100.00;99271.84;5001106;28;20286;-56
2022/09/24 04:35:06;;;;;;;2.30;1.50;;;;;;;16.96;100.00;99265.25;4998925;28;20282;-57
2022/09/24 04:37:57;;;;;;;4.17;1.43;;;;;;;17.00;100.00;99282.63;5010448;28;20350;-57
2022/09/24 04:41:14;;;;;;;1.93;0.80;;;;;;;17.02;100.00;99280.72;5071826;28;20343;-57
2022/09/24 04:44:16;;;;;;;3.10;0.93;;;;;;;16.48;100.00;99212.59;5071524;28;20279;-57
2022/09/24 04:47:02;;;;;;;1.53;0.90;;;;;;;16.98;100.00;99279.22;5071955;28;20291;-57
2022/09/24 04:49:38;;;;;;;1.40;0.90;;;;;;;17.25;100.00;99304.00;5071647;28;20283;-57
2022/09/24 04:52:32;;;;;;;1.67;1.40;;;;;;;17.15;100.00;99284.38;5070651;28;20592;-57
2022/09/24 04:58:34;;;;;;;1.97;1.20;;;;;;;17.33;100.00;99303.53;5068826;28;20287;-58
2022/09/24 05:01:17;;;;;;;1.65;1.17;;;;;;;17.30;100.00;99279.97;5015343;28;21111;-59
2022/09/24 05:03:52;;;;;;;;;;;;;;;17.48;100.00;99304.41;5072255;28;20055;-58
2022/09/24 05:06:46;;;;;;;3.80;1.50;;;;;;;17.47;100.00;99297.41;5071334;28;19925;-57
2022/09/24 05:09:42;;;;;;;2.83;1.40;;;;;;;17.46;100.00;99295.72;5068734;28;20362;-58
2022/09/24 05:12:24;;;;;;;2.53;1.40;;;;;;;17.61;100.00;99300.06;5068710;28;20285;-57
2022/09/24 05:15:08;;;;;;;2.50;1.37;;;;;;;17.63;100.00;99292.91;5071573;28;20279;-58
2022/09/24 05:17:45;;;;;;;3.87;1.80;;;;;;;17.68;100.00;99298.75;5069551;28;20289;-58
2022/09/24 05:20:25;;;;;;;2.93;1.30;;;;;;;17.73;100.00;99302.94;5061541;28;20303;-58
2022/09/24 05:29:16;;;;;;;3.50;1.70;;;;;;;17.77;100.00;99283.28;4998958;28;20474;-57
2022/09/24 05:32:06;;;;;;;3.83;1.50;;;;;;;17.73;100.00;99265.94;4999848;28;20649;-56
2022/09/24 05:37:48;;;;;;;3.53;2.10;;;;;;;17.62;100.00;99259.53;5000606;28;20293;-59
2022/09/24 05:40:49;;;;;;;3.97;2.38;;;;;;;17.63;100.00;99271.78;4998940;28;20281;-59
2022/09/24 05:43:34;;;;;;;5.13;2.13;;;;;;;17.62;100.00;99258.66;4999657;28;20046;-59
2022/09/24 05:46:32;;;;;;;6.47;2.13;;;;;;;17.55;100.00;99263.47;4999905;28;20337;-60
2022/09/24 05:49:46;;;;;;;4.87;2.20;;;;;;;17.56;100.00;99264.31;4998761;28;20042;-58
2022/09/24 05:52:24;;;;;;;7.93;2.13;;;;;;;17.50;100.00;99260.28;4997074;28;20586;-58
2022/09/24 05:55:17;;;;;;;8.53;1.70;;;;;;;17.46;100.00;99248.19;4989282;28;20316;-58
2022/09/24 05:58:13;;;;;;;7.20;2.57;;;;;;;17.41;99.50;99244.97;4990121;28;20466;-59
2022/09/24 06:01:04;;;;;;;7.43;2.10;;;;;;;17.12;99.21;99213.25;4995477;28;20307;-60
2022/09/24 06:03:55;;;;;;;9.60;2.23;;;;;;;17.15;99.19;99223.66;4988027;28;20297;-59
2022/09/24 06:06:49;;;;;;;8.57;2.23;;;;;;;17.20;99.38;99253.25;4990103;28;20296;-58
2022/09/24 06:09:37;;;;;;;6.87;2.27;;;;;;;17.20;99.17;99263.81;4989982;28;20290;-59
2022/09/24 06:15:29;;;;;;;7.30;2.23;;;;;;;17.23;99.55;99263.63;4961590;28;20340;-59
2022/09/24 06:18:11;;;;;;;5.73;2.03;;;;;;;17.17;99.63;99248.16;4988989;28;20306;-59
2022/09/24 06:20:54;;;;;;;7.22;2.22;;;;;;;17.24;99.87;99262.69;4981214;28;20282;-59
2022/09/24 06:23:37;;;;;;;8.03;2.53;;;;;;;17.24;100.00;99259.19;4997114;28;20406;-59
2022/09/24 06:26:19;;;;;;;10.10;4.13;;;;;;;17.26;100.00;99252.03;4990787;28;20357;-59
2022/09/24 06:28:58;;;;;;;5.13;2.47;;;;;;;17.34;100.00;99260.34;4950597;28;20338;-59
2022/09/24 06:31:53;;;;;;;7.53;2.57;;;;;;;17.51;100.00;99267.25;4988413;28;20309;-60
2022/09/24 06:34:35;;;;;;;6.47;2.13;;;;;;;17.60;100.00;99256.13;4989828;28;20577;-59
2022/09/24 06:37:18;;;;;;;4.20;2.28;;;;;;;17.59;100.00;99251.78;4988933;28;20353;-59
2022/09/24 06:39:59;;;;;;;5.47;2.47;;;;;;;17.52;99.66;99258.38;4954376;28;20062;-59
2022/09/24 06:45:41;;;;;;;4.73;2.17;;;;;;;16.76;99.70;99174.91;4987967;28;20282;-59
2022/09/24 06:51:17;;;;;;;11.80;2.63;;;;;;;16.97;100.00;99266.94;4987769;28;20294;-59
2022/09/24 06:54:05;;;;;;;5.63;2.60;;;;;;;16.69;100.00;99236.88;4999175;28;20398;-59
2022/09/24 06:57:15;;;;;;;5.27;2.20;;;;;;;16.71;100.00;99266.66;5070728;28;20504;-59
2022/09/24 07:00:05;;;;;;;7.97;2.77;;;;;;;16.56;100.00;99267.53;5072990;28;20279;-60
2022/09/24 07:02:48;;;;;;;7.80;3.20;;;;;;;16.37;100.00;99258.03;4987935;28;20318;-60
2022/09/24 07:05:37;;;;;;;6.47;3.33;;;;;;;16.27;100.00;99256.81;5072218;28;20298;-58
2022/09/24 07:08:17;;;;;;;8.15;2.78;;;;;;;16.32;100.00;99275.88;5072109;28;20275;-59
2022/09/24 07:11:12;;;;;;;8.93;3.70;;;;;;;16.26;100.00;99281.50;5073048;28;20388;-60
2022/09/24 07:14:03;;;;;;;6.07;2.40;;;;;;;16.18;100.00;99275.81;5073554;28;20410;-59
2022/09/24 07:19:49;;;;;;;8.00;3.20;;;;;;;15.94;100.00;99247.22;5071874;28;20306;-59
2022/09/24 07:22:25;;;;;;;8.50;2.93;;;;;;;16.00;100.00;99275.03;5041279;28;20513;-59
2022/09/24 07:25:16;;;;;;;9.13;3.30;;;;;;;15.93;100.00;99269.25;5073635;28;20299;-59
2022/09/24 07:27:52;;;;;;;10.43;3.67;;;;;;;15.89;100.00;99266.84;5073905;28;20628;-59
2022/09/24 07:30:37;;;;;;;9.73;3.70;;;;;;;15.84;100.00;99264.47;5041018;28;20267;-60
2022/09/24 07:33:25;;;;;;;10.50;3.57;;;;;;;15.85;100.00;99271.44;5073227;28;20275;-58
2022/09/24 07:36:17;;;;;;;6.67;2.73;;;;;;;15.85;100.00;99276.72;5073587;28;20346;-59
2022/09/24 07:39:00;;;;;;;16.43;4.33;;;;;;;15.43;100.00;99216.63;5049642;28;20290;-59
2022/09/24 07:41:51;;;;;;;13.17;3.90;;;;;;;15.81;100.00;99280.44;5073297;28;20311;-59
2022/09/24 07:44:32;;;;;;;11.93;3.35;;;;;;;15.68;100.00;99260.94;5072599;28;20564;-59
2022/09/24 07:47:16;;;;;;;17.83;3.23;;;;;;;15.84;100.00;99296.06;5073337;28;20060;-58
2022/09/24 07:50:00;;;;;;;15.23;3.33;;;;;;;15.82;100.00;99292.66;5072804;28;20572;-59
2022/09/24 07:52:42;;;;;;;21.67;3.97;;;;;;;15.78;100.00;99285.03;5073678;28;20913;-59
2022/09/24 07:55:38;;;;;;;15.83;3.60;;;;;;;15.74;100.00;99294.84;5052192;28;20311;-59
2022/09/24 07:58:15;;;;;;;22.93;4.10;;;;;;;15.70;100.00;99277.50;5051472;28;20323;-58
2022/09/24 08:01:10;;;;;;;19.73;4.00;;;;;;;15.73;100.00;99287.91;5052774;28;20294;-59
2022/09/24 08:03:55;;;;;;;20.93;3.80;;;;;;;15.75;100.00;99296.59;5051714;28;20310;-59
2022/09/24 08:06:44;;;;;;;23.73;4.57;;;;;;;15.71;100.00;99297.66;5003880;28;20281;-58
2022/09/24 08:09:22;;;;;;;16.83;3.97;;;;;;;15.66;99.30;99278.59;4987115;28;20288;-59
2022/09/24 08:12:17;;;;;;;20.10;3.63;;;;;;;15.68;98.73;99297.81;5053153;28;20387;-60
2022/09/24 08:15:11;;;;;;;15.73;3.13;;;;;;;15.49;97.56;99277.69;5052710;28;20314;-59
2022/09/24 08:17:58;;;;;;;19.83;3.70;;;;;;;15.45;96.80;99273.53;5052734;28;20322;-60
2022/09/24 08:20:35;;;;;;;14.07;3.40;;;;;;;15.56;94.95;99301.91;5052612;28;20312;-59
2022/09/24 08:23:19;;;;;;;19.57;3.27;;;;;;;15.55;94.28;99294.97;5052967;28;20567;-59
2022/09/24 08:25:59;;;;;;;18.43;3.20;;;;;;;15.52;93.64;99301.25;5051836;28;20609;-59
2022/09/24 08:31:34;;;;;;;16.20;3.40;;;;;;;15.42;92.55;99292.09;5050741;28;20292;-60
2022/09/24 08:34:15;;;;;;;21.93;3.83;;;;;;;15.43;92.14;99290.34;5051961;28;20333;-60
2022/09/24 08:37:02;;;;;;;14.23;3.40;;;;;;;15.37;92.13;99286.22;5051521;28;20284;-58
2022/09/24 08:39:40;;;;;;;17.53;3.80;;;;;;;15.31;92.06;99276.03;5052561;28;20275;-59
2022/09/24 08:42:37;;;;;;;22.20;3.23;;;;;;;15.26;92.06;99289.41;5027844;28;20322;-59
2022/09/24 08:48:24;;;;;;;20.87;3.50;;;;;;;15.08;91.56;99259.63;5051182;28;20288;-58
2022/09/24 08:51:14;;;;;;;;;;;;;;;15.19;90.80;99281.91;5028690;28;20281;-59
2022/09/24 08:54:04;;;;;;;17.70;3.53;;;;;;;15.17;90.23;99278.50;5061720;28;19935;-60
2022/09/24 08:56:54;;;;;;;18.20;4.00;;;;;;;15.09;89.97;99271.84;5070634;28;20532;-60
2022/09/24 08:59:52;;;;;;;18.70;4.03;;;;;;;15.12;89.55;99288.41;5071691;28;20333;-59
2022/09/24 09:02:45;;;;;;;23.50;3.60;;;;;;;15.10;89.60;99293.72;5070982;28;20355;-59
2022/09/24 09:06:12;;;;;;;17.27;3.53;;;;;;;15.09;89.65;99292.03;5043134;28;20358;-60
2022/09/24 09:09:00;;;;;;;23.13;3.63;;;;;;;14.90;89.23;99276.31;5070787;28;20366;-59
2022/09/24 09:11:46;;;;;;;19.03;3.37;;;;;;;15.09;88.90;99289.41;5070983;28;20104;-58
2022/09/24 09:14:28;;;;;;;25.03;3.47;;;;;;;14.90;88.41;99278.94;5069982;28;20275;-60
2022/09/24 09:17:27;;;;;;;16.57;2.83;;;;;;;14.92;88.61;99295.50;5071642;28;20284;-59
2022/09/24 09:20:32;;;;;;;20.07;3.33;;;;;;;14.98;88.49;99305.75;5070719;28;20292;-61
2022/09/24 09:23:18;;;;;;;16.70;3.30;;;;;;;14.98;88.44;99297.84;5069350;28;20287;-61
2022/09/24 09:26:08;;;;;;;21.20;3.30;;;;;;;14.97;88.15;99288.25;5068678;28;20283;-60
2022/09/24 09:29:06;;;;;;;15.93;3.67;;;;;;;14.98;88.39;99303.13;5071631;28;20297;-59
2022/09/24 09:32:05;;;;;;;25.37;4.00;;;;;;;15.03;88.07;99309.00;5070152;28;20361;-60
2022/09/24 09:35:13;;;;;;;18.40;3.28;;;;;;;15.04;88.02;99289.63;5025955;28;20343;-59
2022/09/24 09:38:32;;;;;;;19.80;3.23;;;;;;;14.95;88.66;99290.13;5029847;28;20049;-59
2022/09/24 09:41:34;;;;;;;19.57;3.10;;;;;;;14.85;88.33;99288.84;5053993;28;20309;-60
2022/09/24 09:44:36;;;;;;;14.77;3.07;;;;;;;14.99;88.17;99307.44;5067668;28;20334;-60
2022/09/24 09:47:36;;;;;;;19.27;3.07;;;;;;;14.95;88.07;99305.91;5044205;28;20322;-61
2022/09/24 09:50:36;;;;;;;24.23;3.73;;;;;;;14.90;87.86;99339.44;5070473;28;20283;-60
2022/09/24 09:53:30;;;;;;;20.33;3.57;;;;;;;14.69;88.21;99293.16;5070967;28;20287;-60
2022/09/24 10:02:32;;;;;;;22.23;3.33;;;;;;;14.75;88.62;99330.56;5043496;28;20308;-60
2022/09/24 10:08:39;;;;;;;16.00;3.57;;;;;;;14.70;88.23;99334.31;5047100;28;20105;-62
2022/09/24 10:11:18;;;;;;;23.50;2.83;;;;;;;14.69;88.55;99329.97;5046787;28;20283;-61
2022/09/24 10:14:26;;;;;;;19.08;3.75;;;;;;;14.57;88.24;99287.56;5014955;28;20279;-61
2022/09/24 10:17:05;;;;;;;15.30;2.80;;;;;;;14.69;88.14;99319.47;5045872;28;20333;-61
2022/09/24 10:19:46;;;;;;;15.80;3.40;;;;;;;14.62;88.19;99325.00;5046739;28;20300;-61
2022/09/24 10:22:37;;;;;;;15.37;3.20;;;;;;;14.56;88.13;99304.28;5043270;28;20284;-60
2022/09/24 10:25:29;;;;;;;16.80;3.40;;;;;;;14.55;88.06;99304.34;5026571;28;20291;-60
2022/09/24 10:34:05;;;;;;;18.83;3.80;;;;;;;14.44;88.60;99308.31;5046458;28;20288;-59
2022/09/24 10:36:52;;;;;;;23.13;3.40;;;;;;;14.34;89.00;99307.03;5051320;28;20295;-60
2022/09/24 10:39:36;;;;;;;14.63;2.97;;;;;;;14.30;89.22;99307.25;5050037;28;20304;-58
2022/09/24 10:45:21;;;;;;;24.17;4.10;;;;;;;14.19;89.67;99316.50;5009438;28;20084;-60
2022/09/24 10:48:23;;;;;;;20.57;3.87;;;;;;;13.95;89.64;99291.34;5052339;28;20316;-61
2022/09/24 10:51:13;;;;;;;22.13;3.57;;;;;;;14.12;90.15;99320.31;5050453;28;20299;-59
2022/09/24 10:54:25;;;;;;;19.73;3.80;;;;;;;14.02;90.18;99313.78;5018832;28;20287;-60
2022/09/24 10:57:16;;;;;;;25.83;3.80;;;;;;;13.72;89.90;99280.09;5049159;28;20081;-59
2022/09/24 11:00:11;;;;;;;27.17;3.97;;;;;;;14.02;90.04;99319.88;4997083;28;20316;-60
2022/09/24 11:03:11;;;;;;;18.53;3.33;;;;;;;13.98;90.23;99314.88;5052161;28;20308;-61
2022/09/24 11:05:54;;;;;;;18.73;3.63;;;;;;;13.76;90.21;99281.69;5047077;28;20291;-61
2022/09/24 11:09:15;;;;;;;25.20;5.03;;;;;;;13.90;90.18;99314.34;5024181;28;20284;-61
2022/09/24 11:12:27;;;;;;;22.60;3.72;;;;;;;13.79;90.11;99299.06;5073811;28;20279;-59
2022/09/24 11:15:19;;;;;;;29.15;4.03;;;;;;;13.84;90.03;99304.13;5073174;28;20223;-60
2022/09/24 11:18:30;;;;;;;19.50;3.10;;;;;;;13.80;90.02;99306.03;5072996;28;20048;-61
2022/09/24 11:21:29;;;;;;;22.07;3.90;;;;;;;13.74;89.97;99291.41;5074448;28;20354;-60
2022/09/24 11:24:33;;;;;;;22.98;3.53;;;;;;;13.72;90.01;99305.53;5047921;28;20291;-60
2022/09/24 11:27:43;;;;;;;22.13;3.03;;;;;;;13.64;89.63;99292.72;5049996;28;20052;-60
2022/09/24 11:30:27;;;;;;;19.60;3.60;;;;;;;13.50;89.72;99274.13;5073824;28;20068;-59
2022/09/24 11:33:33;;;;;;;19.92;3.53;;;;;;;13.62;89.88;99299.81;5072640;28;20331;-60
2022/09/24 11:36:28;;;;;;;18.48;3.47;;;;;;;13.50;89.53;99274.13;5038283;28;20063;-62
2022/09/24 11:39:34;;;;;;;15.95;3.20;;;;;;;13.62;89.23;99299.81;5071845;28;20062;-59
2022/09/24 11:42:24;;;;;;;18.05;3.85;;;;;;;13.60;89.04;99299.03;5070297;28;20044;-60
2022/09/24 11:45:40;;;;;;;27.05;3.90;;;;;;;13.56;88.88;99300.09;5072280;28;20064;-59
2022/09/24 11:48:55;;;;;;;23.17;3.23;;;;;;;13.50;88.81;99279.38;5072755;28;20159;-61
2022/09/24 11:51:42;;;;;;;23.33;3.15;;;;;;;13.53;88.92;99289.75;5073793;28;20302;-59
2022/09/24 11:54:35;;;;;;;15.70;3.10;;;;;;;13.47;88.75;99290.84;5035087;28;20063;-60
2022/09/24 11:57:20;;;;;;;22.10;3.50;;;;;;;13.46;88.78;99293.56;5071568;28;20064;-60
2022/09/24 12:00:10;;;;;;;15.45;2.95;;;;;;;13.46;88.69;99293.56;5072189;28;20057;-61
2022/09/24 12:03:02;;;;;;;21.17;3.17;;;;;;;13.31;88.49;99264.44;5072829;28;20105;-58
2022/09/24 12:05:45;;;;;;;14.48;3.22;;;;;;;13.38;88.34;99271.13;5072999;28;20053;-61
2022/09/24 12:08:35;;;;;;;19.15;4.13;;;;;;;13.41;88.40;99274.53;5071966;28;20103;-60
2022/09/24 12:11:21;;;;;;;18.48;3.17;;;;;;;13.37;88.04;99271.19;5072029;28;20053;-60
2022/09/24 12:14:07;;;;;;;14.95;2.72;;;;;;;13.38;88.08;99276.38;5071773;28;20137;-59
2022/09/24 12:16:52;;;;;;;22.10;3.53;;;;;;;13.35;88.02;99275.63;5071450;28;20098;-60
2022/09/24 12:19:39;;;;;;;13.68;2.50;;;;;;;13.30;88.28;99283.69;5072135;28;20063;-59
2022/09/24 12:22:39;;;;;;;18.88;3.03;;;;;;;13.05;88.07;99246.31;5071946;28;20056;-61
2022/09/24 12:25:34;;;;;;;19.10;3.13;;;;;;;13.26;88.06;99281.28;5071912;28;20084;-59
2022/09/24 12:34:52;;;;;;;17.80;2.72;;;;;;;13.21;87.74;99296.34;5044006;28;20053;-59
2022/09/24 12:37:55;;;;;;;16.58;2.80;;;;;;;13.20;87.87;99292.84;5017634;28;20048;-59
2022/09/24 12:40:59;;;;;;;15.65;2.88;;;;;;;13.14;88.10;99283.47;5068828;28;20056;-60
2022/09/24 12:43:47;;;;;;;15.45;2.70;;;;;;;13.12;88.20;99284.47;5070316;28;20555;-60
2022/09/24 12:49:37;;;;;;;22.70;2.78;;;;;;;13.13;88.08;99291.44;5051178;28;20241;-60
2022/09/24 12:52:51;;;;;;;18.23;3.60;;;;;;;12.95;88.07;99272.94;5068976;28;20045;-60
2022/09/24 12:55:55;;;;;;;15.20;2.67;;;;;;;13.10;88.00;99291.53;5070258;28;20069;-60
2022/09/24 12:58:39;;;;;;;17.08;2.33;;;;;;;12.69;87.80;99228.59;5069868;28;20059;-61
2022/09/24 13:01:32;;;;;;;16.20;2.90;;;;;;;13.08;88.08;99303.84;5071268;28;20044;-61
2022/09/24 13:04:36;;;;;;;14.77;2.65;;;;;;;12.87;88.42;99285.50;5068596;28;20056;-60
2022/09/24 13:07:54;;;;;;;16.02;2.33;;;;;;;12.96;88.78;99302.63;5069608;28;20071;-61
2022/09/24 13:10:35;;;;;;;12.35;2.72;;;;;;;12.80;88.97;99284.03;5070376;28;20075;-60
2022/09/24 13:13:45;;;;;;;12.80;3.20;;;;;;;12.97;89.05;99300.84;5037492;28;20330;-62
2022/09/24 13:19:34;;;;;;;13.82;2.70;;;;;;;12.97;89.06;99309.56;5071450;28;20076;-60
2022/09/24 13:22:28;;;;;;;19.38;3.47;;;;;;;12.95;88.94;99309.66;5070766;28;20045;-60
2022/09/24 13:25:25;;;;;;;11.80;2.45;;;;;;;12.77;89.20;99276.31;5071620;28;20052;-60
2022/09/24 13:28:40;;;;;;;13.07;2.50;;;;;;;12.74;89.37;99266.78;5069490;28;20053;-61
2022/09/24 13:31:51;;;;;;;13.13;2.45;;;;;;;12.70;89.60;99266.97;5071506;28;20044;-60
2022/09/24 13:34:34;;;;;;;17.65;2.45;;;;;;;12.95;89.67;99304.41;5070589;28;20945;-60
2022/09/24 13:37:35;;;;;;;13.90;2.92;;;;;;;12.99;89.53;99299.03;5069672;28;20096;-61
2022/09/24 13:40:29;;;;;;;15.38;2.70;;;;;;;13.03;89.76;99295.34;5038080;28;20060;-61
2022/09/24 13:43:22;;;;;;;11.27;2.45;;;;;;;13.02;89.79;99280.53;5069761;28;20072;-60
2022/09/24 13:46:28;;;;;;;11.95;2.85;;;;;;;13.12;89.71;99280.06;5070245;28;20067;-61
2022/09/24 13:49:10;;;;;;;13.80;2.47;;;;;;;13.19;89.48;99280.66;5070364;28;20052;-61
2022/09/24 13:52:06;;;;;;;18.58;2.90;;;;;;;13.23;89.09;99277.00;5069746;28;20116;-61
2022/09/24 13:55:20;;;;;;;16.88;2.50;;;;;;;13.28;88.94;99269.81;5069259;28;20782;-61
2022/09/24 13:57:57;;;;;;;16.92;2.97;;;;;;;13.26;88.94;99266.38;5068686;28;20052;-60
2022/09/24 14:00:48;;;;;;;15.80;2.50;;;;;;;13.27;88.62;99257.59;5069241;28;20207;-61
2022/09/24 14:03:26;;;;;;;13.98;2.58;;;;;;;13.30;88.43;99262.72;5070832;28;20107;-60
2022/09/24 14:06:15;;;;;;;15.15;2.70;;;;;;;13.34;88.30;99266.91;4998510;28;20302;-61
2022/09/24 14:08:54;;;;;;;13.25;3.00;;;;;;;13.34;88.26;99264.28;5069758;28;20056;-61
2022/09/24 14:11:32;;;;;;;16.33;2.47;;;;;;;13.31;88.49;99259.19;5068730;28;20044;-61
2022/09/24 14:14:19;;;;;;;;;;;;;;;13.29;88.78;99266.25;5069734;28;20052;-60
2022/09/24 14:16:56;;;;;;;14.90;2.00;;;;;;;13.29;88.81;99279.38;5070910;28;19926;-60
2022/09/24 14:19:40;;;;;;;22.95;2.65;;;;;;;13.30;88.97;99267.97;5069897;28;20104;-61
2022/09/24 14:22:33;;;;;;;11.93;2.35;;;;;;;13.01;88.88;99208.03;5070402;28;20148;-60
2022/09/24 14:25:30;;;;;;;13.85;2.10;;;;;;;13.27;89.01;99262.84;5069389;28;20049;-61
2022/09/24 14:28:14;;;;;;;12.73;2.42;;;;;;;13.30;89.11;99273.22;5069972;28;20052;-60
2022/09/24 14:31:00;;;;;;;11.93;2.65;;;;;;;13.26;89.19;99261.13;5027478;28;20057;-59
2022/09/24 14:33:43;;;;;;;11.45;2.45;;;;;;;13.24;89.36;99257.72;5069954;28;20063;-60
2022/09/24 14:36:49;;;;;;;14.93;2.55;;;;;;;13.07;89.53;99249.72;5070031;28;20071;-61
2022/09/24 14:39:51;;;;;;;12.00;2.67;;;;;;;13.20;89.40;99278.88;5069092;28;20086;-59
2022/09/24 14:43:07;;;;;;;9.07;2.10;;;;;;;13.16;89.46;99272.94;5070926;28;20077;-61
2022/09/24 14:45:48;;;;;;;14.85;2.50;;;;;;;13.09;89.92;99272.34;5018743;28;20176;-59
2022/09/24 14:48:40;;;;;;;15.95;3.10;;;;;;;13.06;90.13;99276.88;5068788;28;20048;-61